sensor_id;sensor_type;location;lat;lon;timestamp;pressure;altitude;pressure_sealevel;temperature;humidity
21633;BME280;48765;51.568;8.840;2022-09-25T00:00:47;98211.16;;;12.22;100.00
21633;BME280;48765;51.568;8.840;2022-09-25T00:03:15;98208.41;;;12.27;100.00
21633;BME280;48765;51.568;8.840;2022-09-25T00:05:43;98206.63;;;12.29;100.00
21633;BME280;48765;51.568;8.840;2022-09-25T00:08:11;98215.69;;;12.19;100.00
21633;BME280;48765;51.568;8.840;2022-09-25T00:10:39;98209.28;;;12.29;100.00
21633;BME280;48765;51.568;8.840;2022-09-25T00:13:07;98217.34;;;12.23;100.00
21633;BME280;48765;51.568;8.840;2022-09-25T00:15:34;98218.88;;;12.36;100.00
21633;BME280;48765;51.568;8.840;2022-09-25T00:18:01;98219.06;;;12.27;100.00
21633;BME280;48765;51.568;8.840;2022-09-25T00:20:28;98214.56;;;12.31;100.00
21633;BME280;48765;51.568;8.840;2022-09-25T00:22:54;98222.50;;;12.32;100.00
21633;BME280;48765;51.568;8.840;2022-09-25T00:25:21;98226.13;;;12.30;100.00
21633;BME280;48765;51.568;8.840;2022-09-25T00:27:51;98224.28;;;12.33;100.00
21633;BME280;48765;51.568;8.840;2022-09-25T00:30:20;98212.66;;;12.37;100.00
21633;BME280;48765;51.568;8.840;2022-09-25T00:32:47;98212.78;;;12.31;100.00
21633;BME280;48765;51.568;8.840;2022-09-25T00:35:14;98216.09;;;12.44;100.00
21633;BME280;48765;51.568;8.840;2022-09-25T00:37:41;98211.84;;;12.35;100.00
21633;BME280;48765;51.568;8.840;2022-09-25T00:40:08;98211.06;;;12.28;100.00
21633;BME280;48765;51.568;8.840;2022-09-25T00:42:35;98212.00;;;12.26;100.00
21633;BME280;48765;51.568;8.840;2022-09-25T00:45:02;98210.97;;;12.35;100.00
21633;BME280;48765;51.568;8.840;2022-09-25T00:47:38;98221.47;;;12.41;100.00
21633;BME280;48765;51.568;8.840;2022-09-25T00:50:11;98216.97;;;12.44;100.00
21633;BME280;48765;51.568;8.840;2022-09-25T00:52:40;98213.72;;;12.27;100.00
21633;BME280;48765;51.568;8.840;2022-09-25T00:55:07;98215.41;;;12.34;100.00
21633;BME280;48765;51.568;8.840;2022-09-25T00:57:37;98215.31;;;12.37;100.00
21633;BME280;48765;51.568;8.840;2022-09-25T01:00:07;98217.16;;;12.35;100.00
21633;BME280;48765;51.568;8.840;2022-09-25T01:02:35;98216.34;;;12.30;100.00
21633;BME280;48765;51.568;8.840;2022-09-25T01:05:07;98210.91;;;12.38;100.00
21633;BME280;48765;51.568;8.840;2022-09-25T01:07:35;98216.16;;;12.41;100.00
21633;BME280;48765;51.568;8.840;2022-09-25T01:10:03;98216.59;;;12.16;100.00
21633;BME280;48765;51.568;8.840;2022-09-25T01:12:32;98217.75;;;12.00;100.00
21633;BME280;48765;51.568;8.840;2022-09-25T01:15:01;98213.16;;;12.10;100.00
21633;BME280;48765;51.568;8.840;2022-09-25T01:17:28;98217.25;;;12.29;100.00
21633;BME280;48765;51.568;8.840;2022-09-25T01:20:00;98217.22;;;12.31;100.00
21633;BME280;48765;51.568;8.840;2022-09-25T01:22:35;98214.69;;;12.23;100.00
21633;BME280;48765;51.568;8.840;2022-09-25T01:25:09;98210.47;;;12.11;100.00
21633;BME280;48765;51.568;8.840;2022-09-25T01:30:26;98213.03;;;12.17;100.00
21633;BME280;48765;51.568;8.840;2022-09-25T01:32:57;98218.25;;;12.23;100.00
21633;BME280;48765;51.568;8.840;2022-09-25T01:35:32;98209.38;;;12.24;100.00
21633;BME280;48765;51.568;8.840;2022-09-25T01:38:03;98218.56;;;12.03;100.00
21633;BME280;48765;51.568;8.840;2022-09-25T01:40:33;98216.78;;;12.04;100.00
21633;BME280;48765;51.568;8.840;2022-09-25T01:43:03;98222.75;;;12.20;100.00
21633;BME280;48765;51.568;8.840;2022-09-25T01:45:35;98223.41;;;12.31;100.00
21633;BME280;48765;51.568;8.840;2022-09-25T01:48:05;98218.97;;;12.33;100.00
21633;BME280;48765;51.568;8.840;2022-09-25T01:50:36;98211.06;;;12.28;100.00
21633;BME280;48765;51.568;8.840;2022-09-25T01:53:06;98211.34;;;12.12;100.00
21633;BME280;48765;51.568;8.840;2022-09-25T01:55:35;98215.78;;;12.11;100.00
21633;BME280;48765;51.568;8.840;2022-09-25T01:58:08;98210.44;;;12.13;100.00
21633;BME280;48765;51.568;8.840;2022-09-25T02:00:38;98214.75;;;12.20;100.00
21633;BME280;48765;51.568;8.840;2022-09-25T02:03:07;98219.22;;;12.19;100.00
21633;BME280;48765;51.568;8.840;2022-09-25T02:05:38;98217.47;;;12.17;100.00
21633;BME280;48765;51.568;8.840;2022-09-25T02:08:07;98218.34;;;12.19;100.00
21633;BME280;48765;51.568;8.840;2022-09-25T02:10:37;98222.81;;;12.14;100.00
21633;BME280;48765;51.568;8.840;2022-09-25T02:13:07;98216.63;;;12.15;100.00
21633;BME280;48765;51.568;8.840;2022-09-25T02:15:36;98217.63;;;12.08;100.00
21633;BME280;48765;51.568;8.840;2022-09-25T02:18:06;98214.94;;;12.09;100.00
21633;BME280;48765;51.568;8.840;2022-09-25T02:20:54;98216.94;;;11.96;100.00
21633;BME280;48765;51.568;8.840;2022-09-25T02:23:23;98225.09;;;11.81;100.00
21633;BME280;48765;51.568;8.840;2022-09-25T02:25:53;98214.41;;;11.87;100.00
21633;BME280;48765;51.568;8.840;2022-09-25T02:28:23;98222.03;;;12.09;100.00
21633;BME280;48765;51.568;8.840;2022-09-25T02:30:50;98216.00;;;11.97;100.00
21633;BME280;48765;51.568;8.840;2022-09-25T02:33:20;98215.28;;;11.88;100.00
21633;BME280;48765;51.568;8.840;2022-09-25T02:35:47;98217.75;;;11.98;100.00
21633;BME280;48765;51.568;8.840;2022-09-25T02:38:14;98217.97;;;11.86;100.00
21633;BME280;48765;51.568;8.840;2022-09-25T02:40:43;98218.00;;;11.83;100.00
21633;BME280;48765;51.568;8.840;2022-09-25T02:43:14;98214.31;;;11.93;100.00
21633;BME280;48765;51.568;8.840;2022-09-25T02:45:48;98210.84;;;11.88;100.00
21633;BME280;48765;51.568;8.840;2022-09-25T02:48:21;98216.19;;;11.85;100.00
21633;BME280;48765;51.568;8.840;2022-09-25T02:50:51;98215.31;;;11.85;100.00
21633;BME280;48765;51.568;8.840;2022-09-25T02:53:21;98211.78;;;11.86;100.00
21633;BME280;48765;51.568;8.840;2022-09-25T02:55:55;98219.75;;;11.84;100.00
21633;BME280;48765;51.568;8.840;2022-09-25T02:58:25;98216.97;;;11.93;100.00
21633;BME280;48765;51.568;8.840;2022-09-25T03:00:52;98211.56;;;11.98;100.00
21633;BME280;48765;51.568;8.840;2022-09-25T03:03:23;98206.38;;;11.92;100.00
21633;BME280;48765;51.568;8.840;2022-09-25T03:05:51;98209.06;;;11.90;100.00
21633;BME280;48765;51.568;8.840;2022-09-25T03:08:20;98213.25;;;12.03;100.00
21633;BME280;48765;51.568;8.840;2022-09-25T03:11:07;98218.63;;;12.00;100.00
21633;BME280;48765;51.568;8.840;2022-09-25T03:13:35;98211.53;;;12.01;100.00
21633;BME280;48765;51.568;8.840;2022-09-25T03:16:03;98216.84;;;12.01;100.00
21633;BME280;48765;51.568;8.840;2022-09-25T03:18:33;98212.53;;;11.94;100.00
21633;BME280;48765;51.568;8.840;2022-09-25T03:21:00;98213.47;;;11.91;100.00
21633;BME280;48765;51.568;8.840;2022-09-25T03:23:28;98211.66;;;11.93;100.00
21633;BME280;48765;51.568;8.840;2022-09-25T03:25:55;98208.88;;;11.99;100.00
21633;BME280;48765;51.568;8.840;2022-09-25T03:28:22;98208.09;;;11.96;100.00
21633;BME280;48765;51.568;8.840;2022-09-25T03:30:56;98212.41;;;12.01;100.00
21633;BME280;48765;51.568;8.840;2022-09-25T03:33:23;98208.13;;;11.93;100.00
21633;BME280;48765;51.568;8.840;2022-09-25T03:35:59;98203.38;;;12.12;100.00
21633;BME280;48765;51.568;8.840;2022-09-25T03:38:27;98209.19;;;11.81;100.00
21633;BME280;48765;51.568;8.840;2022-09-25T03:40:53;98208.16;;;11.90;100.00
21633;BME280;48765;51.568;8.840;2022-09-25T03:43:20;98201.03;;;11.93;100.00
21633;BME280;48765;51.568;8.840;2022-09-25T03:45:47;98202.84;;;11.91;100.00
21633;BME280;48765;51.568;8.840;2022-09-25T03:48:14;98205.38;;;11.97;100.00
21633;BME280;48765;51.568;8.840;2022-09-25T03:50:42;98209.00;;;11.93;100.00
21633;BME280;48765;51.568;8.840;2022-09-25T03:53:10;98209.69;;;12.06;100.00
21633;BME280;48765;51.568;8.840;2022-09-25T03:55:37;98212.25;;;12.11;100.00
21633;BME280;48765;51.568;8.840;2022-09-25T03:58:04;98203.75;;;11.90;100.00
21633;BME280;48765;51.568;8.840;2022-09-25T04:00:31;98214.47;;;11.81;100.00
21633;BME280;48765;51.568;8.840;2022-09-25T04:02:57;98207.34;;;11.86;100.00
21633;BME280;48765;51.568;8.840;2022-09-25T04:05:24;98213.56;;;11.81;100.00
21633;BME280;48765;51.568;8.840;2022-09-25T04:07:51;98209.03;;;11.92;100.00
21633;BME280;48765;51.568;8.840;2022-09-25T04:10:19;98212.59;;;11.89;100.00
21633;BME280;48765;51.568;8.840;2022-09-25T04:12:46;98208.44;;;11.70;100.00
21633;BME280;48765;51.568;8.840;2022-09-25T04:15:19;98195.97;;;11.75;100.00
21633;BME280;48765;51.568;8.840;2022-09-25T04:17:47;98203.81;;;11.84;100.00
21633;BME280;48765;51.568;8.840;2022-09-25T04:20:14;98207.44;;;11.78;100.00
21633;BME280;48765;51.568;8.840;2022-09-25T04:22:41;98199.44;;;11.82;100.00
21633;BME280;48765;51.568;8.840;2022-09-25T04:25:08;98205.66;;;11.82;100.00
21633;BME280;48765;51.568;8.840;2022-09-25T04:27:36;98201.91;;;11.95;100.00
21633;BME280;48765;51.568;8.840;2022-09-25T04:30:04;98205.66;;;11.79;100.00
21633;BME280;48765;51.568;8.840;2022-09-25T04:32:32;98207.41;;;11.80;100.00
21633;BME280;48765;51.568;8.840;2022-09-25T04:35:16;98202.22;;;11.71;100.00
21633;BME280;48765;51.568;8.840;2022-09-25T04:37:43;98202.22;;;11.71;100.00
21633;BME280;48765;51.568;8.840;2022-09-25T04:40:10;98196.09;;;11.67;100.00
21633;BME280;48765;51.568;8.840;2022-09-25T04:42:38;98205.88;;;11.64;100.00
21633;BME280;48765;51.568;8.840;2022-09-25T04:45:07;98196.91;;;11.71;100.00
21633;BME280;48765;51.568;8.840;2022-09-25T04:47:34;98194.06;;;11.86;100.00
21633;BME280;48765;51.568;8.840;2022-09-25T04:50:01;98192.38;;;11.79;100.00
21633;BME280;48765;51.568;8.840;2022-09-25T04:52:27;98199.47;;;11.78;100.00
21633;BME280;48765;51.568;8.840;2022-09-25T04:54:56;98198.59;;;11.78;100.00
21633;BME280;48765;51.568;8.840;2022-09-25T04:57:23;98197.00;;;11.65;100.00
21633;BME280;48765;51.568;8.840;2022-09-25T04:59:52;98187.13;;;11.74;100.00
21633;BME280;48765;51.568;8.840;2022-09-25T05:02:19;98197.75;;;11.74;100.00
21633;BME280;48765;51.568;8.840;2022-09-25T05:04:46;98184.66;;;11.64;100.00
21633;BME280;48765;51.568;8.840;2022-09-25T05:07:13;98193.41;;;11.69;100.00
21633;BME280;48765;51.568;8.840;2022-09-25T05:09:40;98189.84;;;11.70;100.00
21633;BME280;48765;51.568;8.840;2022-09-25T05:12:07;98194.38;;;11.65;100.00
21633;BME280;48765;51.568;8.840;2022-09-25T05:14:34;98197.06;;;11.62;100.00
21633;BME280;48765;51.568;8.840;2022-09-25T05:17:02;98198.75;;;11.66;100.00
21633;BME280;48765;51.568;8.840;2022-09-25T05:19:29;98196.97;;;11.68;100.00
21633;BME280;48765;51.568;8.840;2022-09-25T05:21:56;98195.13;;;11.73;100.00
21633;BME280;48765;51.568;8.840;2022-09-25T05:24:23;98197.22;;;11.51;100.00
21633;BME280;48765;51.568;8.840;2022-09-25T05:26:50;98203.34;;;11.58;100.00
21633;BME280;48765;51.568;8.840;2022-09-25T05:29:17;98196.97;;;11.68;100.00
21633;BME280;48765;51.568;8.840;2022-09-25T05:31:44;98192.59;;;11.65;100.00
21633;BME280;48765;51.568;8.840;2022-09-25T05:34:15;98198.75;;;11.67;100.00
21633;BME280;48765;51.568;8.840;2022-09-25T05:36:42;98202.28;;;11.68;100.00
21633;BME280;48765;51.568;8.840;2022-09-25T05:39:09;98190.72;;;11.72;100.00
21633;BME280;48765;51.568;8.840;2022-09-25T05:41:36;98197.06;;;11.62;100.00
21633;BME280;48765;51.568;8.840;2022-09-25T05:44:03;98197.06;;;11.62;100.00
21633;BME280;48765;51.568;8.840;2022-09-25T05:46:33;98200.72;;;11.55;100.00
21633;BME280;48765;51.568;8.840;2022-09-25T05:49:00;98199.59;;;11.69;100.00
21633;BME280;48765;51.568;8.840;2022-09-25T05:51:29;98196.00;;;11.73;100.00
21633;BME280;48765;51.568;8.840;2022-09-25T05:53:56;98201.22;;;11.80;100.00
21633;BME280;48765;51.568;8.840;2022-09-25T05:56:24;98192.69;;;11.59;100.00
21633;BME280;48765;51.568;8.840;2022-09-25T05:58:51;98194.31;;;11.68;100.00
21633;BME280;48765;51.568;8.840;2022-09-25T06:01:19;98195.31;;;11.61;100.00
21633;BME280;48765;51.568;8.840;2022-09-25T06:03:46;98193.56;;;11.60;100.00
21633;BME280;48765;51.568;8.840;2022-09-25T06:06:13;98193.59;;;11.57;100.00
21633;BME280;48765;51.568;8.840;2022-09-25T06:08:41;98197.88;;;11.65;100.00
21633;BME280;48765;51.568;8.840;2022-09-25T06:11:08;98197.25;;;11.49;100.00
21633;BME280;48765;51.568;8.840;2022-09-25T06:13:35;98196.38;;;11.49;100.00
21633;BME280;48765;51.568;8.840;2022-09-25T06:16:02;98193.59;;;11.57;100.00
21633;BME280;48765;51.568;8.840;2022-09-25T06:18:30;98200.72;;;11.55;100.00
21633;BME280;48765;51.568;8.840;2022-09-25T06:20:58;98200.69;;;11.58;100.00
21633;BME280;48765;51.568;8.840;2022-09-25T06:23:25;98194.53;;;11.52;100.00
21633;BME280;48765;51.568;8.840;2022-09-25T06:25:54;98198.50;;;11.84;100.00
21633;BME280;48765;51.568;8.840;2022-09-25T06:28:21;98200.63;;;11.62;100.00
21633;BME280;48765;51.568;8.840;2022-09-25T06:30:48;98198.72;;;11.69;100.00
21633;BME280;48765;51.568;8.840;2022-09-25T06:33:15;98196.91;;;11.71;100.00
21633;BME280;48765;51.568;8.840;2022-09-25T06:35:42;98198.69;;;11.72;100.00
21633;BME280;48765;51.568;8.840;2022-09-25T06:38:09;98194.50;;;11.56;100.00
21633;BME280;48765;51.568;8.840;2022-09-25T06:40:36;98209.47;;;11.60;100.00
21633;BME280;48765;51.568;8.840;2022-09-25T06:43:08;98209.56;;;11.55;100.00
21633;BME280;48765;51.568;8.840;2022-09-25T06:45:35;98202.19;;;11.74;100.00
21633;BME280;48765;51.568;8.840;2022-09-25T06:48:04;98206.59;;;11.75;100.00
21633;BME280;48765;51.568;8.840;2022-09-25T06:50:31;98203.75;;;11.90;100.00
21633;BME280;48765;51.568;8.840;2022-09-25T06:53:02;98203.13;;;11.70;100.00
21633;BME280;48765;51.568;8.840;2022-09-25T06:55:29;98210.28;;;11.65;100.00
21633;BME280;48765;51.568;8.840;2022-09-25T06:57:57;98205.09;;;11.59;100.00
21633;BME280;48765;51.568;8.840;2022-09-25T07:00:25;98206.78;;;11.63;100.00
21633;BME280;48765;51.568;8.840;2022-09-25T07:02:52;98204.03;;;11.69;100.00
21633;BME280;48765;51.568;8.840;2022-09-25T07:05:36;98209.13;;;11.86;100.00
21633;BME280;48765;51.568;8.840;2022-09-25T07:08:03;98223.69;;;11.56;100.00
21633;BME280;48765;51.568;8.840;2022-09-25T07:10:31;98206.94;;;11.52;100.00
21633;BME280;48765;51.568;8.840;2022-09-25T07:12:58;98209.19;;;11.80;100.00
21633;BME280;48765;51.568;8.840;2022-09-25T07:15:27;98222.97;;;11.46;100.00
21633;BME280;48765;51.568;8.840;2022-09-25T07:17:54;98210.25;;;11.66;100.00
21633;BME280;48765;51.568;8.840;2022-09-25T07:20:21;98206.88;;;11.58;100.00
21633;BME280;48765;51.568;8.840;2022-09-25T07:22:48;98214.81;;;11.57;100.00
21633;BME280;48765;51.568;8.840;2022-09-25T07:25:15;98218.41;;;11.52;100.00
21633;BME280;48765;51.568;8.840;2022-09-25T07:27:42;98221.91;;;11.58;100.00
21633;BME280;48765;51.568;8.840;2022-09-25T07:30:10;98227.28;;;11.51;100.00
21633;BME280;48765;51.568;8.840;2022-09-25T07:32:38;98222.88;;;11.50;100.00
21633;BME280;48765;51.568;8.840;2022-09-25T07:35:05;98218.69;;;11.36;100.00
21633;BME280;48765;51.568;8.840;2022-09-25T07:37:32;98217.72;;;11.41;100.00
21633;BME280;48765;51.568;8.840;2022-09-25T07:39:59;98215.03;;;11.44;100.00
21633;BME280;48765;51.568;8.840;2022-09-25T07:42:26;98222.13;;;11.44;100.00
21633;BME280;48765;51.568;8.840;2022-09-25T07:44:53;98230.75;;;11.57;100.00
21633;BME280;48765;51.568;8.840;2022-09-25T07:47:20;98221.72;;;11.70;100.00
21633;BME280;48765;51.568;8.840;2022-09-25T07:49:48;98219.78;;;11.81;100.00
21633;BME280;48765;51.568;8.840;2022-09-25T07:52:15;98225.19;;;11.75;100.00
21633;BME280;48765;51.568;8.840;2022-09-25T07:54:42;98225.66;;;12.05;100.00
21633;BME280;48765;51.568;8.840;2022-09-25T07:57:09;98225.72;;;11.98;100.00
21633;BME280;48765;51.568;8.840;2022-09-25T07:59:36;98219.44;;;12.04;100.00
21633;BME280;48765;51.568;8.840;2022-09-25T08:02:03;98228.13;;;12.15;100.00
21633;BME280;48765;51.568;8.840;2022-09-25T08:04:30;98225.59;;;12.08;100.00
21633;BME280;48765;51.568;8.840;2022-09-25T08:06:58;98231.59;;;11.60;100.00
21633;BME280;48765;51.568;8.840;2022-09-25T08:09:26;98232.09;;;11.88;100.00
21633;BME280;48765;51.568;8.840;2022-09-25T08:11:53;98232.97;;;11.89;100.00
21633;BME280;48765;51.568;8.840;2022-09-25T08:14:21;98236.19;;;11.47;100.00
21633;BME280;48765;51.568;8.840;2022-09-25T08:16:49;98228.75;;;11.74;100.00
21633;BME280;48765;51.568;8.840;2022-09-25T08:19:16;98228.38;;;11.98;100.00
21633;BME280;48765;51.568;8.840;2022-09-25T08:21:43;98231.69;;;11.54;100.00
21633;BME280;48765;51.568;8.840;2022-09-25T08:24:12;98236.88;;;11.63;100.00
21633;BME280;48765;51.568;8.840;2022-09-25T08:26:39;98232.00;;;11.94;100.00
21633;BME280;48765;51.568;8.840;2022-09-25T08:29:06;98240.97;;;11.87;100.00
21633;BME280;48765;51.568;8.840;2022-09-25T08:31:33;98234.94;;;11.74;100.00
21633;BME280;48765;51.568;8.840;2022-09-25T08:34:00;98245.66;;;11.68;100.00
21633;BME280;48765;51.568;8.840;2022-09-25T08:36:28;98234.03;;;11.77;100.00
21633;BME280;48765;51.568;8.840;2022-09-25T08:38:56;98233.88;;;11.88;100.00
21633;BME280;48765;51.568;8.840;2022-09-25T08:41:26;98235.72;;;11.81;100.00
21633;BME280;48765;51.568;8.840;2022-09-25T08:43:57;98242.88;;;11.76;100.00
21633;BME280;48765;51.568;8.840;2022-09-25T08:46:28;98227.91;;;11.70;100.00
21633;BME280;48765;51.568;8.840;2022-09-25T08:49:15;98233.06;;;11.81;100.00
21633;BME280;48765;51.568;8.840;2022-09-25T08:51:44;98244.69;;;11.74;100.00
21633;BME280;48765;51.568;8.840;2022-09-25T08:54:15;98239.25;;;11.83;100.00
21633;BME280;48765;51.568;8.840;2022-09-25T08:56:45;98243.88;;;11.69;100.00
21633;BME280;48765;51.568;8.840;2022-09-25T08:59:18;98250.97;;;11.68;100.00
21633;BME280;48765;51.568;8.840;2022-09-25T09:01:48;98246.31;;;11.84;100.00
21633;BME280;48765;51.568;8.840;2022-09-25T09:04:18;98242.59;;;11.97;100.00
21633;BME280;48765;51.568;8.840;2022-09-25T09:06:48;98239.63;;;12.16;100.00
21633;BME280;48765;51.568;8.840;2022-09-25T09:09:19;98243.84;;;12.29;100.00
21633;BME280;48765;51.568;8.840;2022-09-25T09:11:49;98243.69;;;12.38;100.00
21633;BME280;48765;51.568;8.840;2022-09-25T09:14:20;98247.44;;;12.25;100.00
21633;BME280;48765;51.568;8.840;2022-09-25T09:16:49;98244.16;;;12.11;100.00
21633;BME280;48765;51.568;8.840;2022-09-25T09:19:18;98234.47;;;12.56;100.00
21633;BME280;48765;51.568;8.840;2022-09-25T09:21:46;98237.88;;;12.66;100.00
21633;BME280;48765;51.568;8.840;2022-09-25T09:24:15;98239.28;;;12.84;100.00
21633;BME280;48765;51.568;8.840;2022-09-25T09:26:59;98239.56;;;12.20;100.00
21633;BME280;48765;51.568;8.840;2022-09-25T09:29:34;98242.03;;;12.31;100.00
21633;BME280;48765;51.568;8.840;2022-09-25T09:32:06;98241.75;;;12.48;100.00
21633;BME280;48765;51.568;8.840;2022-09-25T09:34:46;98251.59;;;12.43;100.00
21633;BME280;48765;51.568;8.840;2022-09-25T09:37:17;98249.31;;;12.20;100.00
21633;BME280;48765;51.568;8.840;2022-09-25T09:39:46;98249.47;;;12.11;100.00
21633;BME280;48765;51.568;8.840;2022-09-25T09:42:18;98246.66;;;12.20;100.00
21633;BME280;48765;51.568;8.840;2022-09-25T09:44:53;98244.13;;;12.63;100.00
21633;BME280;48765;51.568;8.840;2022-09-25T09:47:29;98231.34;;;12.34;100.00
21633;BME280;48765;51.568;8.840;2022-09-25T09:50:08;98236.50;;;12.43;100.00
21633;BME280;48765;51.568;8.840;2022-09-25T09:52:42;98235.53;;;12.95;100.00
21633;BME280;48765;51.568;8.840;2022-09-25T09:55:13;98243.53;;;12.94;100.00
21633;BME280;48765;51.568;8.840;2022-09-25T09:57:47;98239.75;;;13.05;100.00
21633;BME280;48765;51.568;8.840;2022-09-25T10:00:17;98244.78;;;12.76;100.00
21633;BME280;48765;51.568;8.840;2022-09-25T10:02:50;98239.09;;;12.94;100.00
21633;BME280;48765;51.568;8.840;2022-09-25T10:05:19;98247.03;;;12.96;100.00
21633;BME280;48765;51.568;8.840;2022-09-25T10:07:49;98241.91;;;12.87;100.00
21633;BME280;48765;51.568;8.840;2022-09-25T10:10:16;98235.88;;;12.77;100.00
21633;BME280;48765;51.568;8.840;2022-09-25T10:12:45;98235.44;;;12.98;100.00
21633;BME280;48765;51.568;8.840;2022-09-25T10:15:17;98234.94;;;12.79;100.00
21633;BME280;48765;51.568;8.840;2022-09-25T10:17:46;98233.50;;;13.08;100.00
21633;BME280;48765;51.568;8.840;2022-09-25T10:20:16;98234.13;;;12.74;100.00
21633;BME280;48765;51.568;8.840;2022-09-25T10:22:44;98237.03;;;13.09;100.00
21633;BME280;48765;51.568;8.840;2022-09-25T10:25:11;98241.94;;;12.84;100.00
21633;BME280;48765;51.568;8.840;2022-09-25T10:27:39;98239.31;;;12.82;100.00
21633;BME280;48765;51.568;8.840;2022-09-25T10:30:27;98245.72;;;13.17;100.00
21633;BME280;48765;51.568;8.840;2022-09-25T10:32:55;98244.34;;;12.99;100.00
21633;BME280;48765;51.568;8.840;2022-09-25T10:35:23;98254.75;;;13.10;100.00
21633;BME280;48765;51.568;8.840;2022-09-25T10:37:52;98253.69;;;13.18;100.00
21633;BME280;48765;51.568;8.840;2022-09-25T10:40:23;98252.75;;;13.21;100.00
21633;BME280;48765;51.568;8.840;2022-09-25T10:43:00;98247.69;;;13.52;100.00
21633;BME280;48765;51.568;8.840;2022-09-25T10:45:30;98242.25;;;13.57;100.00
21633;BME280;48765;51.568;8.840;2022-09-25T10:47:58;98235.00;;;13.23;100.00
21633;BME280;48765;51.568;8.840;2022-09-25T10:50:42;98237.44;;;13.34;100.00
21633;BME280;48765;51.568;8.840;2022-09-25T10:53:22;98235.53;;;13.39;100.00
21633;BME280;48765;51.568;8.840;2022-09-25T10:55:53;98233.84;;;13.35;100.00
21633;BME280;48765;51.568;8.840;2022-09-25T10:58:30;98237.66;;;13.65;100.00
21633;BME280;48765;51.568;8.840;2022-09-25T11:01:01;98238.16;;;13.40;100.00
21633;BME280;48765;51.568;8.840;2022-09-25T11:03:31;98235.44;;;13.43;100.00
21633;BME280;48765;51.568;8.840;2022-09-25T11:05:59;98236.88;;;13.58;100.00
21633;BME280;48765;51.568;8.840;2022-09-25T11:08:28;98227.56;;;13.77;100.00
21633;BME280;48765;51.568;8.840;2022-09-25T11:10:56;98229.19;;;13.85;100.00
21633;BME280;48765;51.568;8.840;2022-09-25T11:13:24;98221.47;;;13.74;100.00
21633;BME280;48765;51.568;8.840;2022-09-25T11:15:55;98224.13;;;13.72;100.00
21633;BME280;48765;51.568;8.840;2022-09-25T11:18:35;98215.06;;;13.81;100.00
21633;BME280;48765;51.568;8.840;2022-09-25T11:21:04;98215.09;;;13.79;100.00
21633;BME280;48765;51.568;8.840;2022-09-25T11:23:33;98209.72;;;13.81;100.00
21633;BME280;48765;51.568;8.840;2022-09-25T11:26:03;98211.75;;;14.43;100.00
21633;BME280;48765;51.568;8.840;2022-09-25T11:28:34;98207.88;;;14.56;100.00
21633;BME280;48765;51.568;8.840;2022-09-25T11:31:04;98209.28;;;13.99;100.00
21633;BME280;48765;51.568;8.840;2022-09-25T11:33:39;98207.50;;;14.34;100.00
21633;BME280;48765;51.568;8.840;2022-09-25T11:36:09;98207.13;;;14.51;100.00
21633;BME280;48765;51.568;8.840;2022-09-25T11:38:42;98200.06;;;14.48;100.00
21633;BME280;48765;51.568;8.840;2022-09-25T11:41:28;98197.19;;;14.22;100.00
21633;BME280;48765;51.568;8.840;2022-09-25T11:44:00;98203.78;;;14.41;100.00
21633;BME280;48765;51.568;8.840;2022-09-25T11:46:34;98198.00;;;14.60;100.00
21633;BME280;48765;51.568;8.840;2022-09-25T11:49:13;98193.84;;;14.49;100.00
21633;BME280;48765;51.568;8.840;2022-09-25T11:51:54;98195.03;;;14.36;100.00
21633;BME280;48765;51.568;8.840;2022-09-25T11:54:27;98200.09;;;14.47;100.00
21633;BME280;48765;51.568;8.840;2022-09-25T11:57:02;98190.88;;;14.26;100.00
21633;BME280;48765;51.568;8.840;2022-09-25T11:59:33;98191.38;;;14.40;100.00
21633;BME280;48765;51.568;8.840;2022-09-25T12:02:05;98184.13;;;15.11;100.00
21633;BME280;48765;51.568;8.840;2022-09-25T12:04:43;98185.38;;;14.97;100.00
21633;BME280;48765;51.568;8.840;2022-09-25T12:07:25;98182.13;;;14.53;100.00
21633;BME280;48765;51.568;8.840;2022-09-25T12:10:05;98172.97;;;15.26;100.00
21633;BME280;48765;51.568;8.840;2022-09-25T12:12:37;98163.28;;;15.51;100.00
21633;BME280;48765;51.568;8.840;2022-09-25T12:15:09;98163.91;;;15.31;100.00
21633;BME280;48765;51.568;8.840;2022-09-25T12:17:41;98160.63;;;15.22;100.00
21633;BME280;48765;51.568;8.840;2022-09-25T12:20:14;98172.31;;;15.18;100.00
21633;BME280;48765;51.568;8.840;2022-09-25T12:22:46;98169.66;;;14.87;100.00
21633;BME280;48765;51.568;8.840;2022-09-25T12:25:29;98168.78;;;14.86;100.00
21633;BME280;48765;51.568;8.840;2022-09-25T12:28:00;98156.25;;;15.19;100.00
21633;BME280;48765;51.568;8.840;2022-09-25T12:30:35;98167.72;;;15.23;100.00
21633;BME280;48765;51.568;8.840;2022-09-25T12:33:19;98164.16;;;14.93;100.00
21633;BME280;48765;51.568;8.840;2022-09-25T12:35:52;98169.03;;;14.77;100.00
21633;BME280;48765;51.568;8.840;2022-09-25T12:38:26;98168.50;;;14.97;100.00
21633;BME280;48765;51.568;8.840;2022-09-25T12:40:57;98162.31;;;14.95;100.00
21633;BME280;48765;51.568;8.840;2022-09-25T12:43:28;98157.69;;;15.31;100.00
21633;BME280;48765;51.568;8.840;2022-09-25T12:45:59;98171.50;;;14.85;100.00
21633;BME280;48765;51.568;8.840;2022-09-25T12:48:33;98165.13;;;14.90;100.00
21633;BME280;48765;51.568;8.840;2022-09-25T12:51:03;98175.78;;;14.90;100.00
21633;BME280;48765;51.568;8.840;2022-09-25T12:53:34;98165.38;;;14.81;100.00
21633;BME280;48765;51.568;8.840;2022-09-25T12:56:03;98156.09;;;14.94;100.00
21633;BME280;48765;51.568;8.840;2022-09-25T12:58:43;98155.84;;;14.72;100.00
21633;BME280;48765;51.568;8.840;2022-09-25T13:01:13;98153.22;;;15.02;100.00
21633;BME280;48765;51.568;8.840;2022-09-25T13:03:45;98158.81;;;14.62;100.00
21633;BME280;48765;51.568;8.840;2022-09-25T13:06:16;98145.97;;;14.76;100.00